Time;durP1;ratioP1;P1;durP2;ratioP2;P2;SDS_P1;SDS_P2;PMS_P1;PMS_P2;Temp;Humidity;BMP_temperature;BMP_pressure;BME280_temperature;BME280_humidity;BME280_pressure;Samples;Min_cycle;Max_cycle;Signal;HPM_P1;HPM_P2
2022/08/07 00:00:41;;;;;;;22.92;3.05;;;;;;;16.83;86.64;98631.84;5008791;28;20192;-58
2022/08/07 00:03:08;;;;;;;22.80;2.92;;;;;;;16.95;88.84;98633.78;5012851;28;20033;-58
2022/08/07 00:05:33;;;;;;;22.23;2.80;;;;;;;16.80;90.06;98626.69;5011245;28;20479;-58
2022/08/07 00:07:59;;;;;;;30.58;3.95;;;;;;;16.88;88.70;98627.16;5011862;28;20799;-58
2022/08/07 00:10:24;;;;;;;22.92;2.92;;;;;;;16.78;90.98;98624.19;5011836;28;20030;-57
2022/08/07 00:12:51;;;;;;;20.92;2.95;;;;;;;16.85;94.30;98632.59;5011996;28;20022;-58
2022/08/07 00:15:16;;;;;;;22.83;3.00;;;;;;;16.85;91.35;98624.69;5010226;28;20030;-58
2022/08/07 00:17:41;;;;;;;22.27;3.00;;;;;;;16.77;94.57;98628.56;5011738;28;20025;-58
2022/08/07 00:20:07;;;;;;;33.72;4.05;;;;;;;16.79;94.00;98625.84;5011172;28;20107;-59
2022/08/07 00:23:05;;;;;;;19.33;2.88;;;;;;;16.82;95.05;98624.81;5014243;28;20065;-59
2022/08/07 00:25:32;;;;;;;23.23;3.20;;;;;;;16.82;95.01;98623.06;5012783;28;20038;-59
2022/08/07 00:27:57;;;;;;;22.08;2.92;;;;;;;16.91;94.96;98629.63;5012542;28;20022;-58
2022/08/07 00:30:23;;;;;;;25.80;3.63;;;;;;;16.58;96.54;98627.91;5012341;28;20044;-59
2022/08/07 00:32:49;;;;;;;19.70;2.90;;;;;;;16.58;96.17;98627.91;5013332;28;20088;-58
2022/08/07 00:35:17;;;;;;;24.45;3.42;;;;;;;16.58;97.64;98623.50;5010027;28;20033;-59
2022/08/07 00:37:42;;;;;;;23.58;3.13;;;;;;;16.30;100.00;98624.19;5012622;28;20036;-59
2022/08/07 00:40:08;;;;;;;32.60;4.05;;;;;;;16.41;100.00;98630.63;5009526;28;20026;-60
2022/08/07 00:42:34;;;;;;;22.98;2.97;;;;;;;16.64;99.86;98627.56;5011265;28;20507;-60
2022/08/07 00:44:59;;;;;;;25.42;3.25;;;;;;;16.61;97.80;98626.88;5013355;28;20028;-59
2022/08/07 00:47:24;;;;;;;26.58;3.38;;;;;;;16.46;100.00;98628.59;5010747;28;20053;-58
2022/08/07 00:49:50;;;;;;;22.25;2.90;;;;;;;16.28;100.00;98636.53;5013520;28;20022;-58
2022/08/07 00:52:15;;;;;;;24.30;3.33;;;;;;;16.36;100.00;98623.81;5010053;28;20041;-57
2022/08/07 00:54:41;;;;;;;20.02;2.97;;;;;;;16.21;100.00;98635.22;5010242;28;20569;-58
2022/08/07 00:57:08;;;;;;;23.00;3.20;;;;;;;16.09;100.00;98630.59;5011070;28;20166;-57
2022/08/07 00:59:36;;;;;;;30.23;3.70;;;;;;;16.08;100.00;98624.47;5011570;28;20037;-58
2022/08/07 01:02:03;;;;;;;22.65;3.22;;;;;;;16.11;100.00;98639.25;5010497;28;20042;-57
2022/08/07 01:04:29;;;;;;;30.77;3.67;;;;;;;16.00;100.00;98627.50;5013607;28;20030;-58
2022/08/07 01:06:55;;;;;;;18.52;2.63;;;;;;;16.18;100.00;98633.56;5012854;28;20135;-57
2022/08/07 01:09:22;;;;;;;22.67;3.10;;;;;;;16.26;100.00;98632.31;5012344;28;20025;-58
2022/08/07 01:11:52;;;;;;;22.00;2.95;;;;;;;16.09;100.00;98627.97;5009348;28;20048;-58
2022/08/07 01:14:19;;;;;;;21.70;2.78;;;;;;;16.25;100.00;98631.47;5009120;28;20118;-59
2022/08/07 01:16:45;;;;;;;25.73;3.35;;;;;;;16.22;100.00;98625.53;5013044;28;20095;-60
2022/08/07 01:19:11;;;;;;;27.83;3.25;;;;;;;16.03;100.00;98631.75;5011692;28;20026;-59
2022/08/07 01:21:37;;;;;;;26.60;3.47;;;;;;;16.11;100.00;98631.34;5012110;28;20416;-58
2022/08/07 01:24:03;;;;;;;19.08;2.63;;;;;;;16.16;100.00;98631.97;5011494;28;20522;-60
2022/08/07 01:26:29;;;;;;;20.90;2.92;;;;;;;16.17;100.00;98629.25;5010507;28;20709;-58
2022/08/07 01:28:55;;;;;;;24.52;3.05;;;;;;;16.21;100.00;98623.81;5012740;28;20021;-58
2022/08/07 01:31:26;;;;;;;25.10;3.03;;;;;;;16.26;100.00;98622.63;5008646;28;20041;-58
2022/08/07 01:33:52;;;;;;;26.57;3.43;;;;;;;16.11;100.00;98631.34;5011346;28;20033;-59
2022/08/07 01:36:18;;;;;;;18.08;2.80;;;;;;;16.02;100.00;98623.94;5010471;28;20034;-57
2022/08/07 01:38:43;;;;;;;31.17;3.85;;;;;;;16.21;100.00;98624.69;5010645;28;20437;-58
2022/08/07 01:41:11;;;;;;;16.23;2.38;;;;;;;16.17;100.00;98629.25;5010958;28;20048;-60
2022/08/07 01:43:36;;;;;;;23.92;3.17;;;;;;;16.09;100.00;98630.59;5009968;28;20028;-60
2022/08/07 01:46:03;;;;;;;25.58;3.33;;;;;;;16.29;100.00;98625.09;5010368;28;20130;-59
2022/08/07 01:48:30;;;;;;;22.35;3.08;;;;;;;16.13;100.00;98634.75;5010957;28;20076;-58
2022/08/07 01:51:03;;;;;;;27.67;3.33;;;;;;;16.21;100.00;98624.69;5010895;28;20041;-58
2022/08/07 01:53:31;;;;;;;;;;;;;;;16.01;100.00;98625.75;5011552;28;20408;-58
2022/08/07 01:56:09;;;;;;;26.15;3.53;;;;;;;16.55;100.00;98628.09;5008289;28;19940;-58
2022/08/07 01:58:40;;;;;;;29.08;3.13;;;;;;;16.59;100.00;98626.97;5009017;28;20033;-60
2022/08/07 02:01:14;;;;;;;24.80;3.17;;;;;;;16.34;100.00;98625.69;5009939;28;20658;-58
2022/08/07 02:03:44;;;;;;;17.58;2.75;;;;;;;16.18;100.00;98619.56;5008502;28;20034;-59
2022/08/07 02:06:13;;;;;;;28.20;3.70;;;;;;;16.10;100.00;98629.63;5008742;28;20042;-58
2022/08/07 02:08:39;;;;;;;21.15;3.10;;;;;;;16.45;100.00;98616.34;5010128;28;20029;-58
2022/08/07 02:11:07;;;;;;;25.50;3.55;;;;;;;16.22;100.00;98626.34;5009265;28;20525;-58
2022/08/07 02:13:34;;;;;;;20.75;2.85;;;;;;;15.61;100.00;98620.75;5009906;28;20122;-58
2022/08/07 02:16:02;;;;;;;24.63;3.40;;;;;;;15.70;100.00;98624.69;5008858;28;20048;-58
2022/08/07 02:18:30;;;;;;;21.67;3.28;;;;;;;15.83;100.00;98624.09;5009878;28;20104;-59
2022/08/07 02:20:57;;;;;;;24.60;3.30;;;;;;;15.96;100.00;98625.13;5011087;28;20462;-57
2022/08/07 02:23:24;;;;;;;26.20;3.35;;;;;;;16.41;100.00;98609.56;5010266;28;20088;-59
2022/08/07 02:25:52;;;;;;;22.25;2.95;;;;;;;16.19;100.00;98610.72;5008771;28;20034;-57
2022/08/07 02:28:19;;;;;;;30.67;3.78;;;;;;;15.83;100.00;98614.41;5011805;28;20025;-58
2022/08/07 02:30:46;;;;;;;20.50;3.03;;;;;;;16.04;100.00;98615.03;5008897;28;20041;-59
2022/08/07 02:33:14;;;;;;;26.85;3.72;;;;;;;15.91;100.00;98606.09;5009537;28;20053;-62
2022/08/07 02:35:40;;;;;;;24.10;3.00;;;;;;;15.87;100.00;98600.16;5007451;28;20408;-62
2022/08/07 02:38:07;;;;;;;19.88;2.95;;;;;;;15.98;100.00;98610.94;4994705;28;20518;-61
2022/08/07 02:40:33;;;;;;;25.38;3.40;;;;;;;16.05;100.00;98608.00;5009059;28;20151;-61
2022/08/07 02:43:00;;;;;;;22.38;3.17;;;;;;;16.00;100.00;98610.88;5012050;28;20026;-60
2022/08/07 02:45:29;;;;;;;30.92;4.10;;;;;;;15.71;100.00;98604.47;5009218;28;20056;-60
2022/08/07 02:47:55;;;;;;;22.17;3.30;;;;;;;15.95;100.00;98602.38;5009361;28;20037;-58
2022/08/07 02:50:21;;;;;;;26.05;3.55;;;;;;;15.79;100.00;98600.56;5005492;28;20123;-57
2022/08/07 02:52:57;;;;;;;24.33;3.10;;;;;;;15.95;100.00;98597.97;5007698;28;20096;-60
2022/08/07 02:55:25;;;;;;;22.70;3.30;;;;;;;15.95;100.00;98597.97;5009939;28;20034;-58
2022/08/07 02:57:53;;;;;;;25.48;3.30;;;;;;;15.84;100.00;98595.03;5011017;28;20025;-58
2022/08/07 03:00:19;;;;;;;22.25;2.92;;;;;;;15.85;100.00;98591.50;5009064;28;20033;-58
2022/08/07 03:02:47;;;;;;;21.60;2.97;;;;;;;15.76;100.00;98591.97;5009668;28;20055;-58
2022/08/07 03:05:14;;;;;;;23.13;3.25;;;;;;;15.48;100.00;98588.13;5010209;28;20062;-58
2022/08/07 03:07:40;;;;;;;29.33;3.80;;;;;;;15.51;100.00;98587.97;5009594;28;20036;-58
2022/08/07 03:10:08;;;;;;;31.33;3.80;;;;;;;15.32;100.00;98589.84;5017302;28;20132;-60
2022/08/07 03:12:34;;;;;;;30.02;3.90;;;;;;;15.54;100.00;98584.34;5008006;28;20100;-59
2022/08/07 03:15:00;;;;;;;23.95;3.25;;;;;;;15.45;100.00;98582.19;5007990;28;20486;-59
2022/08/07 03:17:26;;;;;;;24.98;3.30;;;;;;;15.61;100.00;98586.56;5009524;28;20038;-58
2022/08/07 03:19:53;;;;;;;24.90;3.42;;;;;;;15.38;100.00;98586.88;5007430;28;20029;-58
2022/08/07 03:22:20;;;;;;;22.17;3.17;;;;;;;15.77;100.00;98591.06;5007705;28;20050;-58
2022/08/07 03:24:46;;;;;;;26.67;3.67;;;;;;;15.50;100.00;98585.44;5008692;28;20021;-59
2022/08/07 03:27:13;;;;;;;22.48;3.13;;;;;;;15.60;100.00;98586.63;5009806;28;20048;-58
2022/08/07 03:29:44;;;;;;;22.50;3.13;;;;;;;15.28;100.00;98588.31;5009948;28;20133;-58
2022/08/07 03:32:11;;;;;;;24.55;3.25;;;;;;;15.44;100.00;98586.59;5008678;28;20130;-58
2022/08/07 03:34:38;;;;;;;20.95;3.05;;;;;;;15.05;100.00;98585.03;5006969;28;20672;-58
2022/08/07 03:37:06;;;;;;;25.60;3.33;;;;;;;15.25;100.00;98585.81;5013166;28;20048;-58
2022/08/07 03:39:34;;;;;;;26.08;3.35;;;;;;;15.26;100.00;98583.13;5013562;28;20667;-58
2022/08/07 03:42:04;;;;;;;32.95;4.00;;;;;;;15.32;100.00;98582.81;5011435;28;20373;-58
2022/08/07 03:44:35;;;;;;;23.80;3.17;;;;;;;15.30;100.00;98583.81;5013796;28;20036;-58
2022/08/07 03:47:02;;;;;;;28.45;3.78;;;;;;;15.25;100.00;98585.81;5012217;28;20749;-58
2022/08/07 03:49:29;;;;;;;20.67;3.17;;;;;;;15.38;100.00;98587.75;5012891;28;20591;-58
2022/08/07 03:51:56;;;;;;;23.63;3.30;;;;;;;15.54;100.00;98587.81;5011292;28;20041;-58
2022/08/07 03:54:21;;;;;;;25.15;3.13;;;;;;;15.13;100.00;98588.16;5014734;28;20116;-58
2022/08/07 03:56:48;;;;;;;19.33;2.88;;;;;;;15.65;100.00;98583.78;5014858;28;20124;-58
2022/08/07 03:59:14;;;;;;;26.50;3.33;;;;;;;15.55;100.00;98573.75;5011224;28;20778;-58
2022/08/07 04:01:42;;;;;;;18.50;2.78;;;;;;;15.67;100.00;98582.75;5011834;28;20057;-58
2022/08/07 04:04:08;;;;;;;46.63;5.15;;;;;;;15.51;100.00;98587.97;5012351;28;20801;-58
2022/08/07 04:06:35;;;;;;;22.90;3.03;;;;;;;15.72;100.00;98583.38;5011294;28;20048;-58
2022/08/07 04:09:02;;;;;;;21.92;3.22;;;;;;;15.46;100.00;98590.00;5012885;28;20041;-58
2022/08/07 04:11:28;;;;;;;24.85;3.47;;;;;;;15.72;100.00;98587.78;5010095;28;20052;-58
2022/08/07 04:13:55;;;;;;;22.70;3.15;;;;;;;15.50;100.00;98593.31;5010780;28;20030;-58
2022/08/07 04:16:21;;;;;;;26.02;3.33;;;;;;;15.49;100.00;98604.75;5011669;28;20041;-58
2022/08/07 04:18:47;;;;;;;24.15;3.25;;;;;;;15.57;100.00;98595.53;5012909;28;20036;-59
2022/08/07 04:21:13;;;;;;;24.00;3.25;;;;;;;15.84;100.00;98599.47;5011903;28;20045;-58
2022/08/07 04:23:39;;;;;;;22.50;3.10;;;;;;;15.75;100.00;98606.06;5010568;28;20036;-58
2022/08/07 04:26:06;;;;;;;22.73;3.15;;;;;;;15.97;100.00;98606.63;5014023;28;20060;-59
2022/08/07 04:28:31;;;;;;;27.80;3.63;;;;;;;15.61;100.00;98604.13;5011913;28;20030;-58
2022/08/07 04:30:57;;;;;;;20.17;2.92;;;;;;;15.65;100.00;98599.56;5011184;28;20033;-58
2022/08/07 04:33:23;;;;;;;23.10;3.20;;;;;;;15.81;100.00;98603.13;5011013;28;20022;-58
2022/08/07 04:35:49;;;;;;;20.20;2.88;;;;;;;15.81;100.00;98605.75;4996411;28;20048;-58
2022/08/07 04:38:14;;;;;;;18.67;2.95;;;;;;;15.60;100.00;98598.03;5010732;28;20458;-58
2022/08/07 04:40:42;;;;;;;22.55;3.17;;;;;;;15.82;100.00;98607.44;5011365;28;20448;-59
2022/08/07 04:43:08;;;;;;;22.05;3.42;;;;;;;15.64;100.00;98613.63;5012432;28;20026;-58
2022/08/07 04:45:46;;;;;;;27.77;3.80;;;;;;;15.59;100.00;98612.09;4996052;28;20041;-58
2022/08/07 04:48:33;;;;;;;23.13;3.40;;;;;;;16.00;100.00;98614.34;5012507;28;20404;-58
2022/08/07 04:51:06;;;;;;;17.02;2.75;;;;;;;15.78;100.00;98616.41;5010777;28;20053;-58
2022/08/07 04:53:57;;;;;;;25.20;3.42;;;;;;;16.45;100.00;98621.59;5013636;28;20037;-59
2022/08/07 04:56:31;;;;;;;21.52;2.90;;;;;;;16.67;100.00;98622.13;5001574;28;20116;-59
2022/08/07 04:59:00;;;;;;;17.67;2.72;;;;;;;16.33;100.00;98623.97;5012784;28;20692;-58
2022/08/07 05:01:26;;;;;;;21.63;3.10;;;;;;;15.97;100.00;98630.31;5012158;28;20037;-58
2022/08/07 05:04:01;;;;;;;25.35;3.20;;;;;;;16.68;100.00;98621.19;5015708;28;20032;-58
2022/08/07 05:06:53;;;;;;;22.88;3.10;;;;;;;16.19;100.00;98626.50;5009473;28;20071;-58
2022/08/07 05:09:39;;;;;;;23.27;3.10;;;;;;;17.06;100.00;98623.47;5003098;28;20045;-58
2022/08/07 05:12:08;;;;;;;22.20;3.10;;;;;;;16.69;100.00;98625.53;5010900;28;20060;-58
2022/08/07 05:14:41;;;;;;;21.52;3.13;;;;;;;17.12;100.00;98624.91;5011669;28;20033;-58
2022/08/07 05:17:10;;;;;;;21.73;3.03;;;;;;;16.36;100.00;98615.94;5010346;28;20046;-60
2022/08/07 05:19:51;;;;;;;18.55;2.70;;;;;;;16.89;100.00;98615.66;5012212;28;20108;-58
2022/08/07 05:22:20;;;;;;;15.90;2.42;;;;;;;16.46;100.00;98618.06;5009229;28;20132;-58
2022/08/07 05:24:49;;;;;;;19.60;3.03;;;;;;;17.07;100.00;98614.59;5010347;28;20560;-58
2022/08/07 05:27:16;;;;;;;17.35;2.70;;;;;;;17.38;100.00;98617.25;5010277;28;20447;-59
2022/08/07 05:29:44;;;;;;;16.42;2.58;;;;;;;18.00;97.41;98619.72;5010974;28;20021;-60
2022/08/07 05:32:11;;;;;;;21.95;3.10;;;;;;;18.00;96.19;98614.44;5010198;28;20042;-59
2022/08/07 05:34:39;;;;;;;20.88;3.08;;;;;;;17.68;96.66;98618.06;5011716;28;20038;-59
2022/08/07 05:37:06;;;;;;;25.35;3.53;;;;;;;17.83;97.05;98616.28;5010942;28;20037;-60
2022/08/07 05:39:33;;;;;;;21.75;3.10;;;;;;;17.64;94.09;98628.88;5009487;28;20104;-60
2022/08/07 05:41:59;;;;;;;18.98;2.95;;;;;;;18.38;92.93;98622.63;5008725;28;20040;-60
2022/08/07 05:44:25;;;;;;;17.88;2.80;;;;;;;18.90;87.24;98615.81;5009025;28;20021;-59
2022/08/07 05:46:51;;;;;;;13.75;2.53;;;;;;;19.15;83.59;98622.09;5009147;28;20508;-59
2022/08/07 05:49:19;;;;;;;27.15;3.58;;;;;;;20.61;66.59;98622.69;5011459;28;20084;-61
2022/08/07 05:51:45;;;;;;;12.77;2.40;;;;;;;21.54;60.29;98616.69;5010283;28;20827;-61
2022/08/07 05:54:11;;;;;;;21.33;3.15;;;;;;;23.33;53.34;98623.81;5011595;28;20032;-60
2022/08/07 05:56:38;;;;;;;13.48;2.33;;;;;;;24.15;47.90;98623.91;5009914;28;20042;-60
2022/08/07 05:59:05;;;;;;;18.05;2.90;;;;;;;26.37;41.99;98621.53;5009957;28;20033;-60
2022/08/07 06:01:33;;;;;;;17.15;2.92;;;;;;;25.09;44.20;98626.25;5009988;28;20125;-60
2022/08/07 06:04:00;;;;;;;21.50;3.38;;;;;;;27.94;38.94;98614.84;5008617;28;20036;-58
2022/08/07 06:06:25;;;;;;;18.75;3.20;;;;;;;28.73;36.95;98617.38;5007829;28;20042;-58
2022/08/07 06:08:52;;;;;;;16.05;2.65;;;;;;;25.55;39.38;98623.88;5009948;28;20040;-58
2022/08/07 06:11:17;;;;;;;16.27;2.97;;;;;;;30.82;34.22;98614.91;5010269;28;20042;-58
2022/08/07 06:13:43;;;;;;;13.63;2.50;;;;;;;30.50;32.90;98624.84;5010263;28;20369;-58
2022/08/07 06:16:09;;;;;;;15.70;2.60;;;;;;;28.61;35.43;98617.66;5011121;28;20029;-59
2022/08/07 06:18:35;;;;;;;15.13;3.00;;;;;;;29.63;34.36;98613.94;5009917;28;20579;-59
2022/08/07 06:21:01;;;;;;;10.82;2.63;;;;;;;29.44;33.17;98615.13;5008734;28;20484;-60
2022/08/07 06:23:28;;;;;;;13.57;2.70;;;;;;;29.89;32.45;98611.09;5009896;28;20026;-60
2022/08/07 06:25:55;;;;;;;9.10;2.22;;;;;;;28.83;33.76;98618.06;5010706;28;20794;-59
2022/08/07 06:28:20;;;;;;;12.70;2.65;;;;;;;30.31;31.59;98618.84;5009975;28;20064;-59
2022/08/07 06:30:46;;;;;;;9.05;2.17;;;;;;;32.72;29.29;98621.06;5008885;28;20488;-61
2022/08/07 06:33:11;;;;;;;9.95;2.33;;;;;;;32.84;29.48;98605.19;5009231;28;20048;-61
2022/08/07 06:35:37;;;;;;;14.65;3.00;;;;;;;32.46;29.20;98617.00;5010689;28;20134;-60
2022/08/07 06:38:03;;;;;;;11.80;2.58;;;;;;;30.03;31.67;98621.09;5010916;28;20022;-60
2022/08/07 06:40:33;;;;;;;9.85;2.30;;;;;;;32.18;29.51;98624.09;5007196;28;20033;-62
2022/08/07 06:43:01;;;;;;;12.93;2.65;;;;;;;31.72;30.26;98625.03;5009632;28;20057;-63
2022/08/07 06:45:28;;;;;;;12.15;2.35;;;;;;;32.63;29.03;98619.50;5009474;28;20068;-62
2022/08/07 06:47:54;;;;;;;11.20;2.40;;;;;;;34.21;27.47;98623.03;5010568;28;20035;-61
2022/08/07 06:50:20;;;;;;;8.70;2.20;;;;;;;28.66;32.20;98632.47;5009700;28;20029;-63
2022/08/07 06:52:51;;;;;;;13.40;2.78;;;;;;;33.01;28.79;98616.56;5010987;28;20028;-60
2022/08/07 06:55:21;;;;;;;8.95;2.22;;;;;;;33.18;28.60;98623.44;5009403;28;20373;-61
2022/08/07 06:57:48;;;;;;;10.82;2.53;;;;;;;31.58;29.96;98621.31;5009728;28;20033;-60
2022/08/07 07:00:15;;;;;;;9.30;2.10;;;;;;;31.02;30.48;98620.72;5007644;28;20026;-60
2022/08/07 07:02:42;;;;;;;10.07;2.13;;;;;;;31.06;30.68;98622.03;5007770;28;20514;-60
2022/08/07 07:05:08;;;;;;;8.38;2.03;;;;;;;33.07;29.52;98615.81;5009460;28;20034;-60
2022/08/07 07:07:33;;;;;;;9.88;2.15;;;;;;;29.67;32.16;98615.28;5011268;28;20030;-60
2022/08/07 07:09:59;;;;;;;12.10;2.88;;;;;;;32.45;29.89;98612.59;5008028;28;20433;-59
2022/08/07 07:12:39;;;;;;;12.55;2.88;;;;;;;32.43;30.14;98620.06;5012974;28;20773;-60
2022/08/07 07:15:10;;;;;;;11.05;2.63;;;;;;;32.64;30.24;98616.63;5012245;28;20033;-60
2022/08/07 07:17:58;;;;;;;10.80;2.70;;;;;;;30.82;31.04;98609.53;5009087;28;20463;-60
2022/08/07 07:20:33;;;;;;;8.82;2.20;;;;;;;32.98;28.97;98608.88;5008931;28;20038;-59
2022/08/07 07:23:00;;;;;;;11.25;2.67;;;;;;;33.30;29.04;98609.41;5012018;28;20017;-61
2022/08/07 07:25:26;;;;;;;10.35;2.53;;;;;;;35.04;27.34;98609.38;5008581;28;20030;-60
2022/08/07 07:28:11;;;;;;;10.30;2.40;;;;;;;35.04;27.17;98608.56;5011225;28;20426;-60
2022/08/07 07:30:40;;;;;;;9.52;2.67;;;;;;;34.27;28.01;98605.97;5010132;28;20037;-60
2022/08/07 07:33:10;;;;;;;13.77;3.55;;;;;;;36.20;26.20;98605.41;5008896;28;20033;-60
2022/08/07 07:35:37;;;;;;;10.82;2.70;;;;;;;30.99;30.92;98602.19;5008700;28;20124;-59
2022/08/07 07:38:04;;;;;;;11.98;3.10;;;;;;;34.81;27.28;98606.19;5008996;28;20017;-60
2022/08/07 07:40:31;;;;;;;8.45;2.28;;;;;;;34.66;27.81;98604.47;5010119;28;20092;-60
2022/08/07 07:43:02;;;;;;;12.70;2.88;;;;;;;34.79;27.71;98600.16;5010233;28;20026;-59
2022/08/07 07:45:30;;;;;;;11.13;2.83;;;;;;;34.22;28.41;98592.19;5009193;28;20037;-60
2022/08/07 07:47:57;;;;;;;9.52;2.55;;;;;;;34.25;29.24;98597.22;5009242;28;20022;-60
2022/08/07 07:50:25;;;;;;;11.10;2.80;;;;;;;36.09;27.55;98593.31;5008928;28;20042;-59
2022/08/07 07:52:51;;;;;;;9.45;2.50;;;;;;;36.21;26.60;98600.81;5010491;28;20689;-60
2022/08/07 07:55:19;;;;;;;9.80;2.70;;;;;;;31.58;30.44;98594.34;5006582;28;20033;-59
2022/08/07 07:57:48;;;;;;;10.57;2.60;;;;;;;34.61;28.05;98593.41;5009180;28;20601;-61
2022/08/07 08:00:15;;;;;;;10.38;2.83;;;;;;;33.99;29.05;98582.47;5007833;28;20061;-59
2022/08/07 08:02:41;;;;;;;12.68;3.20;;;;;;;32.57;29.59;98594.06;5009038;28;20083;-61
2022/08/07 08:05:09;;;;;;;9.18;2.70;;;;;;;33.22;29.10;98580.66;5007985;28;20014;-58
2022/08/07 08:07:36;;;;;;;10.85;2.80;;;;;;;34.65;28.19;98586.56;5006535;28;20025;-61
2022/08/07 08:10:03;;;;;;;11.35;2.88;;;;;;;34.92;27.72;98578.50;5005682;28;20029;-60
2022/08/07 08:12:30;;;;;;;10.88;3.03;;;;;;;37.11;25.63;98583.63;5006265;28;20181;-60
2022/08/07 08:14:56;;;;;;;9.68;2.70;;;;;;;33.86;28.43;98574.28;5005233;28;20118;-60
2022/08/07 08:17:22;;;;;;;10.15;2.80;;;;;;;34.91;26.92;98574.13;5003437;28;20124;-59
2022/08/07 08:19:51;;;;;;;9.75;2.80;;;;;;;35.34;26.77;98571.06;5007716;28;20026;-60
2022/08/07 08:27:52;;;;;;;15.65;3.42;;;;;;;33.76;29.23;98571.94;5006505;28;20041;-60
2022/08/07 08:30:18;;;;;;;13.93;2.83;;;;;;;33.92;28.26;98575.38;5007181;28;20029;-61
2022/08/07 08:32:48;;;;;;;16.98;3.53;;;;;;;34.90;26.93;98562.44;5006835;28;20030;-60
2022/08/07 08:35:18;;;;;;;15.02;3.00;;;;;;;34.09;27.52;98570.47;5007541;28;20037;-60
2022/08/07 08:37:46;;;;;;;15.63;3.50;;;;;;;34.24;27.51;98568.47;5007815;28;20065;-61
2022/08/07 08:40:22;;;;;;;15.52;3.33;;;;;;;33.16;28.66;98555.25;5014798;28;20026;-59
2022/08/07 08:43:19;;;;;;;16.55;3.28;;;;;;;32.54;28.62;98572.00;5008168;28;20833;-60
2022/08/07 08:45:56;;;;;;;16.27;3.22;;;;;;;36.87;24.77;98556.19;4979944;28;20569;-59
2022/08/07 08:48:43;;;;;;;15.40;3.30;;;;;;;31.76;29.80;98566.19;5003926;28;20083;-60
2022/08/07 08:51:26;;;;;;;16.83;3.20;;;;;;;33.85;26.76;98572.63;5002866;28;20034;-60
2022/08/07 08:54:03;;;;;;;17.45;3.55;;;;;;;34.71;24.94;98564.06;5009057;28;20022;-61
2022/08/07 08:56:31;;;;;;;13.73;2.78;;;;;;;33.70;25.61;98551.09;5005926;28;20103;-60
2022/08/07 08:59:18;;;;;;;20.50;3.55;;;;;;;33.64;26.41;98551.88;5005818;28;20022;-60
2022/08/07 09:05:05;;;;;;;32.40;4.97;;;;;;;33.05;26.71;98547.63;5042128;28;20423;-60
2022/08/07 09:07:48;;;;;;;26.10;4.10;;;;;;;34.20;25.39;98553.66;5007777;28;20042;-61
2022/08/07 09:10:31;;;;;;;23.15;3.85;;;;;;;32.21;27.19;98556.25;5010815;28;20017;-64
2022/08/07 09:13:09;;;;;;;21.55;3.58;;;;;;;32.55;26.64;98546.66;5026807;28;20017;-60
2022/08/07 09:15:58;;;;;;;19.60;3.40;;;;;;;34.43;25.33;98538.97;5025410;28;20511;-60
2022/08/07 09:18:45;;;;;;;19.35;3.25;;;;;;;31.65;27.52;98538.66;5025610;28;20029;-60
2022/08/07 09:21:31;;;;;;;18.02;3.63;;;;;;;33.47;25.74;98535.09;5025838;28;20088;-60
2022/08/07 09:24:11;;;;;;;13.15;2.92;;;;;;;32.84;25.98;98540.34;5029321;28;20025;-60
2022/08/07 09:26:54;;;;;;;15.38;3.17;;;;;;;32.68;26.70;98533.38;5028106;28;20057;-60
2022/08/07 09:29:37;;;;;;;15.30;3.00;;;;;;;32.75;26.53;98528.84;5027254;28;20089;-59
2022/08/07 09:32:41;;;;;;;12.82;2.92;;;;;;;31.43;27.82;98526.91;5026714;28;20079;-60
2022/08/07 09:35:19;;;;;;;13.93;2.95;;;;;;;33.52;24.82;98518.28;5027064;28;20055;-60
2022/08/07 09:37:54;;;;;;;14.05;2.78;;;;;;;31.72;27.11;98529.81;5028267;28;20037;-59
2022/08/07 09:40:31;;;;;;;21.25;3.95;;;;;;;32.02;26.30;98527.94;5027388;28;20525;-60
2022/08/07 09:43:38;;;;;;;14.13;2.80;;;;;;;32.92;25.60;98512.38;5027433;28;20140;-60
2022/08/07 09:46:19;;;;;;;11.35;2.50;;;;;;;32.80;26.12;98518.28;5021523;28;20055;-60
2022/08/07 09:49:02;;;;;;;17.17;3.30;;;;;;;30.98;28.22;98506.25;5025648;28;20061;-60
2022/08/07 09:52:01;;;;;;;15.98;3.25;;;;;;;32.30;26.46;98506.53;5024012;28;20095;-60
2022/08/07 09:54:37;;;;;;;14.23;2.72;;;;;;;31.32;27.94;98494.97;5029806;28;20053;-60
2022/08/07 09:57:34;;;;;;;14.55;2.85;;;;;;;31.76;26.43;98512.25;5025188;28;20038;-60
2022/08/07 10:00:15;;;;;;;18.23;3.38;;;;;;;31.52;26.80;98508.78;5025025;28;20526;-60
2022/08/07 10:02:59;;;;;;;16.50;2.88;;;;;;;32.57;26.55;98501.41;5029776;28;20049;-60
2022/08/07 10:05:50;;;;;;;12.07;2.53;;;;;;;32.34;26.63;98507.81;5027862;28;20040;-60
2022/08/07 10:08:18;;;;;;;;;;;;;;;33.10;25.74;98501.91;5026940;28;20048;-61
2022/08/07 10:11:15;;;;;;;16.88;2.88;;;;;;;31.74;27.39;98496.25;5029127;28;19917;-59
2022/08/07 10:13:55;;;;;;;14.00;2.90;;;;;;;31.81;27.73;98493.66;5029061;28;20112;-59
2022/08/07 10:16:42;;;;;;;10.98;2.40;;;;;;;32.71;26.64;98480.81;5014372;28;20068;-59
2022/08/07 10:19:10;;;;;;;13.63;2.60;;;;;;;31.75;27.58;98483.63;5014505;28;20049;-59
2022/08/07 10:21:48;;;;;;;12.02;2.80;;;;;;;30.94;27.16;98479.69;5016444;28;20045;-59
2022/08/07 10:24:44;;;;;;;17.40;3.28;;;;;;;33.20;25.57;98475.44;5014989;28;20021;-59
2022/08/07 10:27:25;;;;;;;13.45;2.70;;;;;;;34.55;24.74;98472.31;5011868;28;20046;-59
2022/08/07 10:30:05;;;;;;;13.03;2.67;;;;;;;32.30;26.68;98471.44;5017655;28;20037;-59
2022/08/07 10:32:53;;;;;;;8.00;1.92;;;;;;;30.53;28.43;98471.91;5014605;28;20038;-59
2022/08/07 10:35:52;;;;;;;9.80;2.28;;;;;;;31.88;27.39;98467.59;5013797;28;20018;-59
2022/08/07 10:38:43;;;;;;;12.18;2.30;;;;;;;31.07;27.67;98459.38;5015580;28;20108;-59
2022/08/07 10:41:13;;;;;;;12.23;2.60;;;;;;;30.93;28.34;98451.09;5016800;28;20042;-58
2022/08/07 10:43:48;;;;;;;10.68;2.42;;;;;;;33.01;26.01;98454.44;5015676;28;20474;-58
2022/08/07 10:46:24;;;;;;;10.57;2.40;;;;;;;29.86;28.07;98450.91;5016723;28;20033;-59
2022/08/07 10:49:13;;;;;;;19.30;2.45;;;;;;;31.41;27.46;98447.22;5017368;28;20151;-60
2022/08/07 10:51:56;;;;;;;12.13;2.60;;;;;;;31.89;26.68;98453.06;5012506;28;20100;-59
2022/08/07 10:54:43;;;;;;;11.80;2.42;;;;;;;30.47;28.63;98445.69;5016047;28;20040;-59
2022/08/07 10:57:18;;;;;;;22.05;3.90;;;;;;;31.54;27.37;98436.69;5012145;28;20136;-60
2022/08/07 10:59:52;;;;;;;11.20;2.55;;;;;;;29.36;29.08;98450.22;5013448;28;20029;-60
2022/08/07 11:02:43;;;;;;;18.30;3.35;;;;;;;32.36;25.89;98440.97;5012398;28;20148;-59
2022/08/07 11:05:46;;;;;;;18.03;3.43;;;;;;;32.72;26.22;98437.41;5020013;28;20029;-59
2022/08/07 11:08:30;;;;;;;17.73;3.15;;;;;;;31.66;25.78;98448.66;5014302;28;20295;-60
2022/08/07 11:11:17;;;;;;;11.15;2.40;;;;;;;30.98;26.58;98441.63;5016145;28;20049;-59
2022/08/07 11:13:48;;;;;;;15.15;2.83;;;;;;;31.51;26.25;98435.19;5014417;28;20579;-60
2022/08/07 11:16:44;;;;;;;25.00;4.28;;;;;;;31.01;26.05;98439.41;5002015;28;20040;-59
2022/08/07 11:19:28;;;;;;;20.20;3.83;;;;;;;31.89;24.41;98431.50;5009451;28;20047;-61
2022/08/07 11:22:00;;;;;;;11.27;2.53;;;;;;;31.82;25.06;98427.91;5010650;28;20114;-60
2022/08/07 11:24:52;;;;;;;17.58;3.22;;;;;;;29.81;26.73;98433.63;5013556;28;20030;-60
2022/08/07 11:27:53;;;;;;;10.60;2.35;;;;;;;29.63;26.86;98421.25;5010577;28;20049;-60
2022/08/07 11:30:24;;;;;;;23.70;3.85;;;;;;;29.93;27.01;98432.22;5008205;28;20116;-60
2022/08/07 11:33:05;;;;;;;14.65;2.83;;;;;;;29.81;26.72;98430.94;5011463;28;20446;-59
2022/08/07 11:35:41;;;;;;;14.48;2.90;;;;;;;29.72;27.20;98412.16;5010461;28;20052;-59
2022/08/07 11:38:15;;;;;;;24.77;3.78;;;;;;;29.62;26.99;98408.81;5011334;28;20084;-59
2022/08/07 11:40:55;;;;;;;23.50;4.05;;;;;;;28.38;28.43;98410.84;5008745;28;20036;-61
2022/08/07 11:43:24;;;;;;;14.18;2.63;;;;;;;27.76;28.36;98419.22;5012353;28;20038;-60
2022/08/07 11:46:24;;;;;;;22.20;3.60;;;;;;;28.57;28.13;98409.69;5011015;28;20057;-63
2022/08/07 11:49:14;;;;;;;25.20;4.15;;;;;;;27.57;29.73;98408.75;5013143;28;20038;-61
2022/08/07 11:52:18;;;;;;;24.58;3.88;;;;;;;27.08;30.49;98406.66;5011458;28;20136;-61